Time;durP1;ratioP1;P1;durP2;ratioP2;P2;SDS_P1;SDS_P2;PMS_P1;PMS_P2;Temp;Humidity;BMP_temperature;BMP_pressure;BME280_temperature;BME280_humidity;BME280_pressure;Samples;Min_cycle;Max_cycle;Signal;HPM_P1;HPM_P2
2022/03/05 00:01:46;;;;;;;9.80;4.40;;;-0.40;87.60;;;;;;6315439;22;20180;-88
2022/03/05 00:04:12;;;;;;;7.80;4.83;;;-0.40;87.40;;;;;;6314967;22;20157;-88
2022/03/05 00:06:37;;;;;;;9.17;4.97;;;-0.40;87.40;;;;;;6315487;22;20153;-88
2022/03/05 00:09:03;;;;;;;16.87;5.87;;;-0.40;87.30;;;;;;6343733;22;20169;-88
2022/03/05 00:11:28;;;;;;;7.90;4.50;;;-0.40;87.20;;;;;;6316676;22;20212;-88
2022/03/05 00:13:54;;;;;;;10.70;4.90;;;-0.40;87.20;;;;;;6317680;22;20222;-88
2022/03/05 00:16:19;;;;;;;11.43;4.90;;;-0.40;87.10;;;;;;6317003;22;20161;-88
2022/03/05 00:18:45;;;;;;;7.03;4.43;;;-0.40;87.00;;;;;;6316156;22;20220;-88
2022/03/05 00:21:10;;;;;;;9.57;4.33;;;-0.40;87.00;;;;;;6316243;22;20644;-88
2022/03/05 00:23:36;;;;;;;8.07;3.90;;;-0.40;86.80;;;;;;6316018;22;20188;-87
2022/03/05 00:26:02;;;;;;;7.17;3.97;;;-0.40;86.70;;;;;;6316697;22;20157;-88
2022/03/05 00:28:27;;;;;;;7.30;4.00;;;-0.40;86.70;;;;;;6315730;22;20619;-88
2022/03/05 00:30:58;;;;;;;8.13;4.30;;;-0.40;86.60;;;;;;6317459;22;20177;-88
2022/03/05 00:33:23;;;;;;;7.13;4.23;;;-0.40;86.50;;;;;;6343953;22;20465;-88
2022/03/05 00:35:49;;;;;;;8.83;5.30;;;-0.40;86.50;;;;;;6343850;22;20141;-88
2022/03/05 00:38:14;;;;;;;13.37;4.73;;;-0.50;86.50;;;;;;6316138;22;20225;-88
2022/03/05 00:40:41;;;;;;;6.63;4.30;;;-0.50;86.50;;;;;;6343723;22;20192;-88
2022/03/05 00:43:07;;;;;;;10.10;4.43;;;-0.50;86.60;;;;;;6315061;22;20202;-87
2022/03/05 00:45:32;;;;;;;10.73;4.90;;;-0.50;86.60;;;;;;6315960;22;20160;-88
2022/03/05 00:47:58;;;;;;;6.90;4.10;;;-0.50;86.60;;;;;;6315011;22;20164;-88
2022/03/05 00:50:23;;;;;;;7.90;4.40;;;-0.50;86.50;;;;;;6315875;22;20485;-88
2022/03/05 00:52:49;;;;;;;11.10;4.17;;;-0.60;86.60;;;;;;6315658;22;20252;-88
2022/03/05 00:55:14;;;;;;;8.67;4.37;;;-0.60;86.60;;;;;;6316412;22;20149;-88
2022/03/05 00:57:40;;;;;;;8.10;4.13;;;-0.60;86.60;;;;;;6315200;22;20228;-88
2022/03/05 01:00:10;;;;;;;5.43;3.97;;;-0.70;86.70;;;;;;6315989;22;20160;-88
2022/03/05 01:02:36;;;;;;;8.67;4.50;;;-0.70;86.80;;;;;;6316114;22;20185;-88
2022/03/05 01:05:02;;;;;;;8.90;4.33;;;-0.70;86.80;;;;;;6315978;22;20157;-88
2022/03/05 01:07:28;;;;;;;9.27;4.43;;;-0.60;86.80;;;;;;6315159;22;20157;-89
2022/03/05 01:09:53;;;;;;;8.33;4.50;;;-0.70;86.70;;;;;;6316784;22;20318;-88
2022/03/05 01:12:19;;;;;;;10.93;3.87;;;-0.70;86.80;;;;;;6317840;22;20173;-88
2022/03/05 01:14:45;;;;;;;14.20;5.17;;;-0.80;86.80;;;;;;6316690;22;20158;-88
2022/03/05 01:17:10;;;;;;;10.60;4.60;;;-0.80;86.90;;;;;;6317602;22;20204;-88
2022/03/05 01:19:36;;;;;;;7.00;3.93;;;-0.80;86.80;;;;;;6317116;22;20153;-88
2022/03/05 01:22:01;;;;;;;5.80;4.50;;;-0.80;86.80;;;;;;6317482;22;20514;-88
2022/03/05 01:24:27;;;;;;;10.93;4.37;;;-0.90;86.90;;;;;;6317628;22;20152;-88
2022/03/05 01:26:53;;;;;;;9.73;4.50;;;-0.90;86.90;;;;;;6345815;22;20150;-88
2022/03/05 01:29:18;;;;;;;8.97;4.60;;;-1.00;87.00;;;;;;6345266;22;20230;-88
2022/03/05 01:31:44;;;;;;;11.07;4.83;;;-1.00;87.20;;;;;;6317500;22;20636;-88
2022/03/05 01:34:09;;;;;;;7.70;4.50;;;-1.00;87.20;;;;;;6317609;22;20153;-88
2022/03/05 01:36:35;;;;;;;7.73;4.40;;;-1.00;87.30;;;;;;6318337;22;20201;-88
2022/03/05 01:39:00;;;;;;;12.13;4.20;;;-1.10;87.30;;;;;;6345102;22;20143;-88
2022/03/05 01:41:26;;;;;;;10.70;4.70;;;-1.00;87.40;;;;;;6318339;22;20263;-88
2022/03/05 01:43:52;;;;;;;10.37;4.80;;;-1.10;87.40;;;;;;6344723;22;20156;-87
2022/03/05 01:46:31;;;;;;;13.80;4.57;;;-1.10;87.50;;;;;;6344332;22;20152;-87
2022/03/05 01:48:57;;;;;;;7.07;4.07;;;-1.20;87.50;;;;;;6313343;22;20157;-88
2022/03/05 01:51:22;;;;;;;10.53;4.37;;;-1.20;87.60;;;;;;6313225;22;20190;-87
2022/03/05 01:53:48;;;;;;;7.70;4.47;;;-1.20;87.70;;;;;;6314890;22;20153;-88
2022/03/05 01:56:16;;;;;;;9.73;4.50;;;-1.30;87.70;;;;;;6315463;22;20153;-89
2022/03/05 01:58:42;;;;;;;8.27;4.27;;;-1.30;87.80;;;;;;6342352;22;20152;-88
2022/03/05 02:01:08;;;;;;;11.87;4.30;;;-1.30;87.80;;;;;;6315764;22;20155;-89
2022/03/05 02:03:36;;;;;;;8.00;4.47;;;-1.30;87.90;;;;;;6313890;22;20161;-89
2022/03/05 02:06:02;;;;;;;7.60;4.27;;;-1.30;87.90;;;;;;6313427;22;20225;-89
2022/03/05 02:08:27;;;;;;;9.53;4.83;;;-1.30;87.80;;;;;;6313438;22;20478;-89
2022/03/05 02:10:53;;;;;;;8.90;4.97;;;-1.30;87.80;;;;;;6313430;22;20184;-89
2022/03/05 02:13:19;;;;;;;8.57;4.60;;;-1.30;87.90;;;;;;6313155;22;20169;-89
2022/03/05 02:15:45;;;;;;;10.73;4.13;;;-1.40;87.90;;;;;;6313288;22;20180;-89
2022/03/05 02:18:10;;;;;;;9.73;4.30;;;-1.40;87.90;;;;;;6313707;22;20497;-89
2022/03/05 02:20:39;;;;;;;9.80;5.00;;;-1.40;87.90;;;;;;6341374;22;20543;-89
2022/03/05 02:23:04;;;;;;;8.90;4.57;;;-1.40;87.90;;;;;;6341570;22;20172;-89
2022/03/05 02:25:30;;;;;;;6.83;4.10;;;-1.40;87.80;;;;;;6313275;22;20256;-89
2022/03/05 02:27:57;;;;;;;12.13;4.90;;;-1.40;87.90;;;;;;6312965;22;20163;-89
2022/03/05 02:30:23;;;;;;;7.67;3.73;;;-1.40;87.90;;;;;;6313097;22;20181;-89
2022/03/05 02:32:49;;;;;;;11.83;4.80;;;-1.40;87.90;;;;;;6340216;22;20201;-89
2022/03/05 02:35:14;;;;;;;14.97;5.27;;;-1.40;87.80;;;;;;6340597;22;20147;-89
2022/03/05 02:37:40;;;;;;;9.80;4.97;;;-1.40;87.70;;;;;;6312424;22;20188;-89
2022/03/05 02:40:06;;;;;;;8.07;4.33;;;-1.40;87.70;;;;;;6312931;22;20156;-89
2022/03/05 02:42:31;;;;;;;5.97;4.37;;;-1.50;87.70;;;;;;6312559;22;20214;-89
2022/03/05 02:44:57;;;;;;;7.27;4.17;;;-1.50;87.80;;;;;;6340569;22;20660;-89
2022/03/05 02:47:23;;;;;;;7.50;3.93;;;-1.40;87.70;;;;;;6314039;22;20482;-89
2022/03/05 02:49:48;;;;;;;10.27;4.60;;;-1.50;87.70;;;;;;6313013;22;20152;-89
2022/03/05 02:52:14;;;;;;;12.57;4.60;;;-1.50;87.60;;;;;;6313521;22;20173;-89
2022/03/05 02:54:40;;;;;;;10.20;4.83;;;-1.60;87.60;;;;;;6341115;22;20172;-89
2022/03/05 02:57:05;;;;;;;8.37;4.00;;;-1.60;87.70;;;;;;6313218;22;20495;-89
2022/03/05 02:59:31;;;;;;;8.07;4.57;;;-1.60;87.80;;;;;;6340997;22;20249;-89
2022/03/05 03:01:57;;;;;;;11.57;5.13;;;-1.70;87.90;;;;;;6313642;22;20257;-89
2022/03/05 03:04:22;;;;;;;8.30;4.00;;;-1.70;87.90;;;;;;6313436;22;20153;-89
2022/03/05 03:06:50;;;;;;;10.17;4.50;;;-1.70;88.00;;;;;;6313132;22;20256;-89
2022/03/05 03:09:16;;;;;;;7.43;4.00;;;-1.70;88.10;;;;;;6313360;22;20155;-89
2022/03/05 03:11:41;;;;;;;9.23;4.17;;;-1.70;88.00;;;;;;6312588;22;20291;-89
2022/03/05 03:14:07;;;;;;;7.63;3.90;;;-1.70;88.00;;;;;;6313174;22;20155;-89
2022/03/05 03:16:35;;;;;;;11.50;4.33;;;-1.70;87.90;;;;;;6313243;22;20173;-89
2022/03/05 03:19:01;;;;;;;7.37;4.10;;;-1.70;87.80;;;;;;6340573;22;20154;-89
2022/03/05 03:21:26;;;;;;;6.50;4.33;;;-1.70;87.80;;;;;;6313818;22;20205;-89
2022/03/05 03:23:52;;;;;;;8.63;4.23;;;-1.70;87.80;;;;;;6313965;22;20163;-89
2022/03/05 03:26:17;;;;;;;5.30;3.70;;;-1.70;87.80;;;;;;6340100;22;20149;-89
2022/03/05 03:28:43;;;;;;;7.67;3.73;;;-1.70;87.80;;;;;;6312825;22;20164;-89
2022/03/05 03:31:08;;;;;;;8.93;3.63;;;-1.70;87.70;;;;;;6340102;22;20174;-89
2022/03/05 03:33:34;;;;;;;9.73;3.87;;;-1.70;87.70;;;;;;6313200;22;20155;-89
2022/03/05 03:35:59;;;;;;;5.33;3.70;;;-1.70;87.60;;;;;;6340984;22;20222;-89
2022/03/05 03:38:25;;;;;;;7.10;4.13;;;-1.70;87.50;;;;;;6312423;22;20157;-89
2022/03/05 03:40:51;;;;;;;6.90;3.57;;;-1.70;87.60;;;;;;6313732;22;20162;-89
2022/03/05 03:43:16;;;;;;;7.60;4.27;;;-1.70;87.50;;;;;;6314789;22;20259;-89
2022/03/05 03:45:42;;;;;;;8.33;3.40;;;-1.80;87.50;;;;;;6342148;22;20152;-89
2022/03/05 03:48:07;;;;;;;10.17;3.97;;;-1.70;87.50;;;;;;6314588;22;20209;-89
2022/03/05 03:50:34;;;;;;;7.40;3.60;;;-1.70;87.40;;;;;;6314319;22;20185;-89
2022/03/05 03:52:59;;;;;;;5.43;3.53;;;-1.70;87.40;;;;;;6314895;22;20171;-90
2022/03/05 03:55:25;;;;;;;9.60;3.13;;;-1.80;87.30;;;;;;6342681;22;20146;-89
2022/03/05 03:57:51;;;;;;;8.87;3.87;;;-1.90;87.30;;;;;;6314526;22;20159;-89
2022/03/05 04:00:18;;;;;;;6.83;3.50;;;-1.90;87.40;;;;;;6314640;22;20156;-89
2022/03/05 04:02:44;;;;;;;5.00;3.20;;;-1.90;87.40;;;;;;6341609;22;20176;-89
2022/03/05 04:05:10;;;;;;;5.30;3.13;;;-1.90;87.40;;;;;;6341543;22;20148;-89
2022/03/05 04:10:21;;;;;;;5.90;3.60;;;-1.90;87.40;;;;;;6342045;22;20173;-90
2022/03/05 04:12:47;;;;;;;7.30;3.50;;;-1.90;87.40;;;;;;6314386;22;20172;-89
2022/03/05 04:15:12;;;;;;;7.07;3.43;;;-2.00;87.30;;;;;;6314310;22;20624;-89
2022/03/05 04:17:38;;;;;;;9.70;3.40;;;-2.00;87.30;;;;;;6313722;22;20159;-89
2022/03/05 04:20:06;;;;;;;7.43;3.50;;;-2.10;87.20;;;;;;6341882;22;20202;-89
2022/03/05 04:22:33;;;;;;;8.20;3.30;;;-2.00;87.20;;;;;;6313670;22;20710;-89
2022/03/05 04:24:59;;;;;;;8.27;3.13;;;-2.10;87.30;;;;;;6313538;22;20159;-89
2022/03/05 04:27:24;;;;;;;5.83;3.10;;;-2.10;87.40;;;;;;6314145;22;20236;-89
2022/03/05 04:29:50;;;;;;;5.70;3.13;;;-2.00;87.40;;;;;;6313393;22;20149;-89
2022/03/05 04:32:15;;;;;;;8.40;3.47;;;-2.10;87.40;;;;;;6313799;22;20226;-89
2022/03/05 04:34:41;;;;;;;6.87;3.73;;;-2.10;87.50;;;;;;6313300;22;20276;-89
2022/03/05 04:37:07;;;;;;;7.03;4.53;;;-2.10;87.60;;;;;;6313627;22;20146;-89
2022/03/05 04:39:32;;;;;;;8.30;3.60;;;-2.10;87.60;;;;;;6313639;22;20482;-89
2022/03/05 04:41:58;;;;;;;6.67;3.27;;;-2.10;87.60;;;;;;6313474;22;20175;-89
2022/03/05 04:44:24;;;;;;;5.87;3.57;;;-2.10;87.60;;;;;;6313635;22;20224;-89
2022/03/05 04:46:50;;;;;;;8.97;3.83;;;-2.10;87.70;;;;;;6313429;22;20154;-89
2022/03/05 04:49:16;;;;;;;9.93;3.40;;;-2.20;87.70;;;;;;6313161;22;20159;-89
2022/03/05 04:51:41;;;;;;;9.43;3.67;;;-2.30;87.70;;;;;;6312765;22;20185;-89
2022/03/05 04:54:07;;;;;;;11.13;4.03;;;-2.30;87.80;;;;;;6313123;22;20494;-89
2022/03/05 04:56:33;;;;;;;9.27;4.17;;;-2.30;88.00;;;;;;6340619;22;20522;-89
2022/03/05 04:58:58;;;;;;;10.63;3.73;;;-2.40;88.10;;;;;;6313535;22;20158;-89
2022/03/05 05:01:24;;;;;;;10.00;4.57;;;-2.40;88.10;;;;;;6313322;22;20175;-89
2022/03/05 05:03:49;;;;;;;9.90;3.90;;;-2.40;88.20;;;;;;6340735;22;20151;-89
2022/03/05 05:06:15;;;;;;;5.17;3.67;;;-2.50;88.30;;;;;;6313580;22;20218;-89
2022/03/05 05:08:41;;;;;;;11.03;4.20;;;-2.50;88.30;;;;;;6313258;22;20478;-89
2022/03/05 05:11:06;;;;;;;5.57;3.40;;;-2.50;88.50;;;;;;6313299;22;20213;-89
2022/03/05 05:13:32;;;;;;;5.70;3.57;;;-2.50;88.50;;;;;;6313522;22;20212;-89
2022/03/05 05:15:58;;;;;;;9.50;3.87;;;-2.50;88.60;;;;;;6313046;22;20505;-89
2022/03/05 05:18:23;;;;;;;7.33;4.20;;;-2.50;88.70;;;;;;6340523;22;20150;-89
2022/03/05 05:20:49;;;;;;;5.63;3.80;;;-2.40;88.90;;;;;;6313245;22;20154;-89
2022/03/05 05:23:15;;;;;;;6.33;3.83;;;-2.40;89.00;;;;;;6313963;22;20258;-89
2022/03/05 05:25:40;;;;;;;7.73;4.27;;;-2.50;89.00;;;;;;6313297;22;20154;-89
2022/03/05 05:28:06;;;;;;;6.10;3.40;;;-2.50;89.00;;;;;;6340904;22;20169;-89
2022/03/05 05:30:31;;;;;;;5.37;3.60;;;-2.50;89.10;;;;;;6340409;22;20180;-89
2022/03/05 05:32:57;;;;;;;6.13;4.00;;;-2.50;89.10;;;;;;6313018;22;20626;-89
2022/03/05 05:35:22;;;;;;;6.53;4.07;;;-2.50;89.20;;;;;;6312996;22;20237;-89
2022/03/05 05:37:48;;;;;;;5.20;3.47;;;-2.50;89.20;;;;;;6340832;22;20149;-89
2022/03/05 05:40:14;;;;;;;9.90;4.30;;;-2.60;89.30;;;;;;6340642;22;20596;-89
2022/03/05 05:42:39;;;;;;;8.70;3.57;;;-2.60;89.30;;;;;;6340375;22;20222;-89
2022/03/05 05:45:05;;;;;;;12.60;4.30;;;-2.60;89.30;;;;;;6312859;22;20169;-89
2022/03/05 05:47:31;;;;;;;9.00;4.27;;;-2.60;89.40;;;;;;6312904;22;20159;-89
2022/03/05 05:49:57;;;;;;;9.37;4.00;;;-2.60;89.40;;;;;;6312850;22;20655;-89
2022/03/05 05:52:23;;;;;;;9.77;3.67;;;-2.60;89.50;;;;;;6340282;22;20165;-89
2022/03/05 05:54:48;;;;;;;8.70;4.13;;;-2.60;89.50;;;;;;6312841;22;20606;-89
2022/03/05 05:57:14;;;;;;;8.93;4.20;;;-2.50;89.50;;;;;;6340414;22;20203;-89
2022/03/05 05:59:39;;;;;;;5.97;3.70;;;-2.50;89.50;;;;;;6313762;22;20174;-89
2022/03/05 06:02:05;;;;;;;7.60;3.43;;;-2.60;89.50;;;;;;6313056;22;20170;-89
2022/03/05 06:04:31;;;;;;;11.80;3.40;;;-2.60;89.60;;;;;;6312090;22;20154;-89
2022/03/05 06:06:56;;;;;;;7.97;4.47;;;-2.60;89.60;;;;;;6313726;22;20156;-88
2022/03/05 06:09:23;;;;;;;5.40;4.13;;;-2.60;89.60;;;;;;6313140;22;20153;-89
2022/03/05 06:11:48;;;;;;;8.27;4.33;;;-2.60;89.70;;;;;;6312946;22;20196;-89
2022/03/05 06:14:14;;;;;;;12.60;4.17;;;-2.50;89.70;;;;;;6312576;22;20236;-89
2022/03/05 06:16:39;;;;;;;8.20;4.10;;;-2.50;89.80;;;;;;6312948;22;20162;-89
2022/03/05 06:19:05;;;;;;;10.00;3.90;;;-2.40;89.90;;;;;;6312404;22;20212;-89
2022/03/05 06:21:30;;;;;;;9.73;4.13;;;-2.30;90.00;;;;;;6312371;22;20252;-88
2022/03/05 06:23:56;;;;;;;10.70;4.17;;;-2.30;90.00;;;;;;6313326;22;20153;-89
2022/03/05 06:26:21;;;;;;;8.50;4.33;;;-2.30;90.10;;;;;;6312614;22;20162;-89
2022/03/05 06:28:47;;;;;;;13.30;4.60;;;-2.20;90.10;;;;;;6312622;22;20173;-89
2022/03/05 06:31:13;;;;;;;7.97;4.23;;;-2.20;90.10;;;;;;6312393;22;20178;-89
2022/03/05 06:33:39;;;;;;;10.37;4.57;;;-2.10;90.20;;;;;;6312744;22;20225;-89
2022/03/05 06:36:04;;;;;;;8.63;4.23;;;-2.10;90.20;;;;;;6312409;22;20234;-89
2022/03/05 06:38:30;;;;;;;9.10;5.17;;;-2.00;90.20;;;;;;6312292;22;20179;-89
2022/03/05 06:40:56;;;;;;;7.57;4.57;;;-2.00;90.20;;;;;;6312280;22;20501;-88
2022/03/05 06:43:21;;;;;;;12.37;4.77;;;-1.90;90.30;;;;;;6340198;22;20593;-89
2022/03/05 06:45:47;;;;;;;14.23;5.23;;;-1.90;90.30;;;;;;6340370;22;20175;-88
2022/03/05 06:48:13;;;;;;;8.67;4.30;;;-1.80;90.30;;;;;;6312081;22;20238;-87
2022/03/05 06:50:39;;;;;;;7.67;4.80;;;-1.80;90.30;;;;;;6311869;22;20231;-88
2022/03/05 06:53:05;;;;;;;6.80;4.50;;;-1.70;90.30;;;;;;6313207;22;20166;-88
2022/03/05 06:55:31;;;;;;;11.03;5.23;;;-1.70;90.40;;;;;;6312610;22;20186;-89
2022/03/05 06:57:56;;;;;;;10.40;5.27;;;-1.70;90.40;;;;;;6312672;22;20150;-89
2022/03/05 07:00:22;;;;;;;9.30;4.60;;;-1.60;90.50;;;;;;6313843;22;20187;-89
2022/03/05 07:02:48;;;;;;;9.13;4.60;;;-1.50;90.50;;;;;;6312933;22;20181;-88
2022/03/05 07:05:14;;;;;;;12.03;4.90;;;-1.50;90.40;;;;;;6313084;22;20543;-89
2022/03/05 07:07:40;;;;;;;14.03;5.20;;;-1.40;90.40;;;;;;6313279;22;20239;-88
2022/03/05 07:10:07;;;;;;;8.47;5.70;;;-1.40;90.40;;;;;;6313912;22;20187;-89
2022/03/05 07:12:33;;;;;;;8.40;5.60;;;-1.20;90.40;;;;;;6312744;22;20664;-88
2022/03/05 07:14:59;;;;;;;11.77;5.50;;;-1.20;90.40;;;;;;6312488;22;20192;-88
2022/03/05 07:17:25;;;;;;;15.70;5.90;;;-1.10;90.40;;;;;;6313183;22;20575;-88
2022/03/05 07:19:51;;;;;;;14.10;6.27;;;-1.10;90.30;;;;;;6312636;22;20160;-88
2022/03/05 07:22:17;;;;;;;13.47;6.43;;;-1.00;90.30;;;;;;6312629;22;20203;-88
2022/03/05 07:24:43;;;;;;;8.83;5.57;;;-1.00;90.30;;;;;;6312858;22;20215;-89
2022/03/05 07:27:09;;;;;;;11.87;5.87;;;-0.90;90.20;;;;;;6313066;22;20187;-88
2022/03/05 07:29:34;;;;;;;14.70;6.47;;;-0.90;90.20;;;;;;6312956;22;20156;-89
2022/03/05 07:32:03;;;;;;;18.90;6.13;;;-0.80;90.10;;;;;;6312927;22;20622;-89
2022/03/05 07:34:31;;;;;;;17.63;5.80;;;-0.70;90.20;;;;;;6312675;22;20162;-89
2022/03/05 07:36:57;;;;;;;8.60;5.57;;;-0.70;90.10;;;;;;6312337;22;20158;-89
2022/03/05 07:39:24;;;;;;;10.03;6.57;;;-0.60;90.10;;;;;;6314036;22;20157;-88
2022/03/05 07:41:50;;;;;;;8.63;6.23;;;-0.60;90.00;;;;;;6313068;22;20227;-88
2022/03/05 07:44:15;;;;;;;14.00;5.97;;;-0.50;90.00;;;;;;6313762;22;20595;-89
2022/03/05 07:46:41;;;;;;;9.70;6.13;;;-0.50;90.00;;;;;;6313108;22;20160;-89
2022/03/05 07:49:06;;;;;;;9.77;6.37;;;-0.40;89.90;;;;;;6313061;22;20497;-89
2022/03/05 07:51:33;;;;;;;14.43;6.10;;;-0.30;89.90;;;;;;6312884;22;20700;-88
2022/03/05 07:53:59;;;;;;;13.20;6.83;;;-0.20;89.90;;;;;;6312810;22;20173;-89
2022/03/05 07:56:24;;;;;;;13.93;7.00;;;-0.20;89.80;;;;;;6314189;22;20149;-89
2022/03/05 07:58:50;;;;;;;9.43;5.60;;;-0.20;89.70;;;;;;6312787;22;20232;-89
2022/03/05 08:01:15;;;;;;;10.27;6.33;;;0.00;89.70;;;;;;6313353;22;20185;-89
2022/03/05 08:03:41;;;;;;;12.47;6.83;;;0.00;89.50;;;;;;6314454;22;20165;-89
2022/03/05 08:06:06;;;;;;;13.70;6.40;;;0.00;89.40;;;;;;6313143;22;20157;-89
2022/03/05 08:08:32;;;;;;;17.70;6.70;;;0.00;89.40;;;;;;6312767;22;20158;-89
2022/03/05 08:10:58;;;;;;;11.30;6.40;;;0.00;89.20;;;;;;6340566;22;20176;-89
2022/03/05 08:13:23;;;;;;;13.07;6.83;;;0.20;89.10;;;;;;6341200;22;20147;-90
2022/03/05 08:15:49;;;;;;;10.73;6.80;;;0.20;89.00;;;;;;6313010;22;20218;-89
2022/03/05 08:18:15;;;;;;;14.80;6.57;;;0.20;88.80;;;;;;6314020;22;20158;-89
2022/03/05 08:20:40;;;;;;;13.67;6.67;;;0.30;88.60;;;;;;6313669;22;20153;-90
2022/03/05 08:23:07;;;;;;;13.57;5.93;;;0.30;88.50;;;;;;6312828;22;20181;-89
2022/03/05 08:25:32;;;;;;;12.00;6.80;;;0.50;88.40;;;;;;6312626;22;20156;-90
2022/03/05 08:27:58;;;;;;;10.50;6.40;;;0.50;87.90;;;;;;6341065;22;20175;-89
2022/03/05 08:30:24;;;;;;;13.47;6.43;;;0.60;87.80;;;;;;6341334;22;20199;-89
2022/03/05 08:32:50;;;;;;;9.27;6.30;;;0.70;87.80;;;;;;6313905;22;20171;-89
2022/03/05 08:35:15;;;;;;;16.10;6.73;;;0.70;87.60;;;;;;6341615;22;20203;-89
2022/03/05 08:37:42;;;;;;;9.20;6.37;;;0.80;87.10;;;;;;6313959;22;20240;-89
2022/03/05 08:40:10;;;;;;;14.77;6.50;;;0.90;87.20;;;;;;6341565;22;20150;-89
2022/03/05 08:42:36;;;;;;;17.97;7.20;;;1.00;87.20;;;;;;6314179;22;20185;-89
2022/03/05 08:45:04;;;;;;;13.70;7.27;;;1.10;86.90;;;;;;6313473;22;20160;-89
2022/03/05 08:47:30;;;;;;;13.40;7.00;;;1.10;86.80;;;;;;6341762;22;20150;-89
2022/03/05 08:49:55;;;;;;;10.13;6.87;;;1.30;86.80;;;;;;6341137;22;20654;-89
2022/03/05 08:52:21;;;;;;;12.13;6.70;;;1.30;86.20;;;;;;6314222;22;20171;-89
2022/03/05 08:54:47;;;;;;;14.10;6.97;;;1.30;85.80;;;;;;6314131;22;20152;-89
2022/03/05 08:57:12;;;;;;;12.20;6.90;;;1.40;85.80;;;;;;6314370;22;20156;-89
2022/03/05 08:59:38;;;;;;;14.70;7.67;;;1.50;85.70;;;;;;6313636;22;20153;-89
2022/03/05 09:02:05;;;;;;;17.23;6.90;;;1.60;85.50;;;;;;6313400;22;20182;-90
2022/03/05 09:04:30;;;;;;;15.33;7.23;;;1.70;85.20;;;;;;6341371;22;20147;-89
2022/03/05 09:06:56;;;;;;;9.27;6.80;;;1.70;84.90;;;;;;6340838;22;20206;-89
2022/03/05 09:09:21;;;;;;;10.47;6.93;;;1.80;84.90;;;;;;6341268;22;20187;-89
2022/03/05 09:11:47;;;;;;;10.60;6.37;;;1.90;84.90;;;;;;6313258;22;20195;-89
2022/03/05 09:14:12;;;;;;;21.37;7.77;;;2.00;84.20;;;;;;6313573;22;20157;-91
2022/03/05 09:16:39;;;;;;;12.70;6.50;;;2.10;83.90;;;;;;6341617;22;20277;-90
2022/03/05 09:19:05;;;;;;;12.57;6.60;;;2.20;83.60;;;;;;6313447;22;20152;-91
2022/03/05 09:21:32;;;;;;;12.97;7.70;;;2.30;83.90;;;;;;6313347;22;20586;-90
2022/03/05 09:23:58;;;;;;;13.47;8.07;;;2.30;83.60;;;;;;6313527;22;20211;-91
2022/03/05 09:26:24;;;;;;;14.00;7.40;;;2.50;83.30;;;;;;6313614;22;20157;-90
2022/03/05 09:28:50;;;;;;;13.73;8.40;;;2.50;82.50;;;;;;6313298;22;20157;-90
2022/03/05 09:31:16;;;;;;;20.47;7.67;;;2.60;82.20;;;;;;6340517;22;20181;-90
2022/03/05 09:33:42;;;;;;;14.67;8.23;;;2.80;82.20;;;;;;6312989;22;20231;-90
2022/03/05 09:36:09;;;;;;;12.77;7.80;;;2.80;81.70;;;;;;6313405;22;20225;-90
2022/03/05 09:38:34;;;;;;;12.90;8.10;;;2.90;81.80;;;;;;6313058;22;20556;-90
2022/03/05 09:41:04;;;;;;;12.23;7.70;;;3.00;80.70;;;;;;6341374;22;20145;-90
2022/03/05 09:43:30;;;;;;;17.23;8.13;;;3.10;80.60;;;;;;6340807;22;20472;-90
2022/03/05 09:45:58;;;;;;;11.13;7.60;;;3.20;80.20;;;;;;6340964;22;20141;-90
2022/03/05 09:48:25;;;;;;;18.10;8.10;;;3.30;79.70;;;;;;6313194;22;20161;-91
2022/03/05 09:50:51;;;;;;;12.73;7.23;;;3.40;79.30;;;;;;6340600;22;20173;-90
2022/03/05 09:53:17;;;;;;;10.30;7.20;;;3.50;78.60;;;;;;6339723;22;20225;-89
2022/03/05 09:55:42;;;;;;;16.63;7.67;;;3.60;78.40;;;;;;6312992;22;20157;-89
2022/03/05 09:58:08;;;;;;;13.10;8.87;;;3.50;77.10;;;;;;6314507;22;20177;-89
2022/03/05 10:00:33;;;;;;;14.00;8.10;;;3.60;76.80;;;;;;6314148;22;20543;-89
2022/03/05 10:03:00;;;;;;;15.80;7.83;;;3.70;76.70;;;;;;6312938;22;20260;-89
2022/03/05 10:05:26;;;;;;;13.77;7.80;;;3.80;77.10;;;;;;6313785;22;20165;-89
2022/03/05 10:08:00;;;;;;;17.87;8.83;;;3.80;76.40;;;;;;6313977;22;20552;-90
2022/03/05 10:10:26;;;;;;;10.40;7.73;;;3.90;76.20;;;;;;6314543;22;20181;-89
2022/03/05 10:12:51;;;;;;;14.07;8.60;;;3.90;75.60;;;;;;6314654;22;20197;-89
2022/03/05 10:15:21;;;;;;;16.13;8.27;;;4.00;75.20;;;;;;6341391;22;20149;-89
2022/03/05 10:17:55;;;;;;;14.03;9.17;;;4.10;73.50;;;;;;6314035;22;20153;-89
2022/03/05 10:20:33;;;;;;;14.50;8.30;;;4.20;73.60;;;;;;6313292;22;20609;-89
2022/03/05 10:23:09;;;;;;;17.37;10.10;;;4.30;72.20;;;;;;6321995;22;20198;-89
2022/03/05 10:25:39;;;;;;;16.43;10.33;;;4.40;71.10;;;;;;6320105;22;20161;-90
2022/03/05 10:28:06;;;;;;;18.33;10.57;;;4.70;73.20;;;;;;6317030;22;20186;-90
2022/03/05 10:30:44;;;;;;;16.17;8.63;;;4.70;71.30;;;;;;6315297;22;20173;-90
2022/03/05 10:33:28;;;;;;;16.77;10.20;;;4.60;71.10;;;;;;6315404;22;20548;-90
2022/03/05 10:35:55;;;;;;;17.93;9.43;;;4.60;69.90;;;;;;6313720;22;20152;-90
2022/03/05 10:38:22;;;;;;;13.33;9.77;;;4.80;68.60;;;;;;6312953;22;20159;-90
2022/03/05 10:40:56;;;;;;;15.43;9.00;;;5.00;69.00;;;;;;6313131;22;20153;-90
2022/03/05 10:43:22;;;;;;;19.20;9.97;;;5.10;68.00;;;;;;6314875;22;20175;-90
2022/03/05 10:45:51;;;;;;;12.57;9.30;;;5.10;67.10;;;;;;6315627;22;20155;-89
2022/03/05 10:48:26;;;;;;;18.20;9.70;;;5.00;66.70;;;;;;6316907;22;20177;-90
2022/03/05 10:51:10;;;;;;;16.03;9.93;;;5.00;66.10;;;;;;6316619;22;20169;-90
2022/03/05 10:53:41;;;;;;;24.17;9.83;;;5.20;68.00;;;;;;6317696;22;20213;-90
2022/03/05 10:56:27;;;;;;;10.70;8.07;;;5.50;67.20;;;;;;6316543;22;20198;-90
2022/03/05 10:59:26;;;;;;;;;;;;;;;;;;;;;
2022/03/05 11:01:53;;;;;;;12.57;8.53;;;5.40;64.40;;;;;;6341759;22;20306;-89
2022/03/05 11:04:19;;;;;;;11.63;8.33;;;5.80;66.10;;;;;;6345435;22;20147;-90
2022/03/05 11:06:45;;;;;;;9.60;8.13;;;5.50;64.20;;;;;;6324996;22;20160;-90
2022/03/05 11:09:12;;;;;;;11.63;8.20;;;5.70;64.70;;;;;;6325474;22;20159;-90
2022/03/05 11:11:41;;;;;;;10.77;8.27;;;5.70;63.00;;;;;;6327533;22;20524;-90
2022/03/05 11:14:11;;;;;;;11.40;8.83;;;5.80;64.30;;;;;;6328767;22;20183;-89
2022/03/05 11:16:40;;;;;;;13.97;8.63;;;5.80;62.60;;;;;;6340993;22;20149;-89
2022/03/05 11:19:06;;;;;;;14.30;9.20;;;5.80;61.20;;;;;;6314408;22;20230;-90
2022/03/05 11:21:32;;;;;;;17.10;9.93;;;6.00;62.30;;;;;;6319023;22;20171;-89
2022/03/05 11:23:58;;;;;;;14.03;10.07;;;6.30;62.20;;;;;;6316968;22;20179;-89
2022/03/05 11:26:27;;;;;;;13.50;9.27;;;6.30;61.50;;;;;;6315955;22;20604;-89
2022/03/05 11:28:52;;;;;;;10.40;8.83;;;6.00;60.80;;;;;;6313631;22;20239;-90
2022/03/05 11:31:28;;;;;;;10.93;8.80;;;6.00;61.60;;;;;;6313672;22;20200;-90
2022/03/05 11:33:54;;;;;;;14.33;9.67;;;6.10;60.90;;;;;;6312348;22;20554;-90
2022/03/05 11:36:27;;;;;;;11.83;9.23;;;5.80;60.30;;;;;;6340334;22;20199;-90
2022/03/05 11:39:08;;;;;;;13.27;8.90;;;5.80;60.70;;;;;;6313415;22;20145;-90
2022/03/05 11:41:46;;;;;;;11.97;8.57;;;5.60;60.20;;;;;;6313481;22;20633;-89
2022/03/05 11:44:14;;;;;;;10.50;8.07;;;5.70;59.40;;;;;;6313310;22;20144;-89
2022/03/05 11:46:39;;;;;;;15.37;10.10;;;5.90;60.20;;;;;;6312108;22;20157;-89
2022/03/05 11:49:07;;;;;;;12.03;7.87;;;5.80;60.30;;;;;;6315188;22;20160;-90
2022/03/05 11:51:33;;;;;;;12.17;8.67;;;5.70;61.30;;;;;;6312875;22;20231;-89
2022/03/05 11:54:12;;;;;;;11.03;9.60;;;5.70;61.00;;;;;;6314152;22;20191;-89
2022/03/05 11:56:38;;;;;;;12.00;9.67;;;5.40;60.90;;;;;;6314656;22;20584;-89
2022/03/05 11:59:29;;;;;;;11.07;9.37;;;5.40;64.60;;;;;;6314406;22;20247;-89
2022/03/05 12:01:55;;;;;;;11.80;8.03;;;5.30;63.10;;;;;;6315393;22;20168;-89
2022/03/05 12:04:28;;;;;;;13.53;9.63;;;5.10;61.90;;;;;;6315635;22;20588;-89
2022/03/05 12:07:22;;;;;;;13.50;8.70;;;5.00;62.90;;;;;;6316725;22;20149;-88
2022/03/05 12:09:56;;;;;;;16.93;9.20;;;5.00;62.50;;;;;;6314278;22;20241;-89
2022/03/05 12:12:22;;;;;;;16.10;9.30;;;5.00;62.80;;;;;;6315313;22;20520;-88
2022/03/05 12:15:06;;;;;;;16.93;9.20;;;5.00;62.60;;;;;;6314466;22;20151;-89
2022/03/05 12:17:46;;;;;;;20.37;8.80;;;5.00;63.00;;;;;;6315995;22;20607;-89
2022/03/05 12:20:19;;;;;;;12.20;8.30;;;5.30;63.40;;;;;;6316198;22;20152;-88
2022/03/05 12:22:58;;;;;;;11.07;8.60;;;5.40;62.30;;;;;;6315310;22;20175;-89
2022/03/05 12:25:25;;;;;;;13.77;9.10;;;5.30;62.40;;;;;;6315547;22;20147;-88
2022/03/05 12:27:52;;;;;;;13.33;8.97;;;5.40;62.20;;;;;;6314986;22;20247;-89
2022/03/05 12:30:20;;;;;;;11.83;8.90;;;5.40;62.20;;;;;;6315419;22;20200;-88
2022/03/05 12:32:47;;;;;;;15.63;8.20;;;5.40;62.90;;;;;;6318077;22;20620;-89
2022/03/05 12:35:16;;;;;;;10.10;7.87;;;5.30;62.70;;;;;;6323088;22;20160;-88
2022/03/05 12:37:43;;;;;;;11.00;7.23;;;5.20;63.20;;;;;;6317815;22;20157;-89
2022/03/05 12:40:10;;;;;;;10.10;7.63;;;5.10;63.70;;;;;;6323335;22;20152;-89
2022/03/05 12:42:38;;;;;;;9.07;7.50;;;5.10;63.20;;;;;;6321114;22;20179;-89
2022/03/05 12:45:06;;;;;;;10.10;6.80;;;5.00;63.50;;;;;;6320382;22;20487;-89
2022/03/05 12:47:33;;;;;;;13.13;7.40;;;5.00;63.60;;;;;;6320496;22;20152;-89